SBPL

Senador Nilo Coelho Airport

Petrolina, Brazil
TAF SBPL 182200Z 1900/1924 14008KT 9999 FEW025 TN24/1908Z TX34/1918Z RMK PEA
Issued Valid From Valid To
Jan-18 @ 22:00 UTC
(4 hours ago)
Jan-19 @ 00:00 UTC
(2 hours ago)
Jan-20 @ 00:00 UTC
(in 22 hours)
Jan-19 @ 00:00 to Jan-20 @ 00:00
TAF SBPL 182200Z 1900/1924 14008KT 9999 FEW025 TN24/1908Z TX34/1918Z RMK PEA
Wind Visibility Clouds
140° at 8 knots 10,000+ meters
  • Few at 2,500' AGL
TAF SBPL 182200Z 1900/1924 14008KT 9999 FEW025 TN24/1908Z TX34/1918Z RMK PEA
Issued Jan-18 @ 22:00 UTC
(4 hours ago)
Valid From Jan-19 @ 00:00 UTC
(2 hours ago)
Valid To Jan-20 @ 00:00 UTC
(in 22 hours)
Jan-19 @ 00:00 - Jan-20 @ 00:00
Wind Visibility
140° at 8 knots 10,000+ meters
Clouds
  • Few at 2,500' AGL